sensor_id;sensor_type;location;lat;lon;timestamp;P1;durP1;ratioP1;P2;durP2;ratioP2
65189;SDS011;51777;53.570;9.984;2024-02-26T00:01:41;7.68;;;5.90;;
65189;SDS011;51777;53.570;9.984;2024-02-26T00:04:08;7.93;;;6.00;;
65189;SDS011;51777;53.570;9.984;2024-02-26T00:06:34;6.97;;;5.60;;
65189;SDS011;51777;53.570;9.984;2024-02-26T00:11:29;10.48;;;5.88;;
65189;SDS011;51777;53.570;9.984;2024-02-26T00:13:55;7.13;;;5.45;;
65189;SDS011;51777;53.570;9.984;2024-02-26T00:16:20;8.95;;;5.45;;
65189;SDS011;51777;53.570;9.984;2024-02-26T00:18:46;7.25;;;5.47;;
65189;SDS011;51777;53.570;9.984;2024-02-26T00:21:11;9.35;;;5.80;;
65189;SDS011;51777;53.570;9.984;2024-02-26T00:23:37;8.50;;;5.53;;
65189;SDS011;51777;53.570;9.984;2024-02-26T00:26:02;10.73;;;6.30;;
65189;SDS011;51777;53.570;9.984;2024-02-26T00:28:28;8.48;;;5.90;;
65189;SDS011;51777;53.570;9.984;2024-02-26T00:30:54;7.75;;;5.75;;
65189;SDS011;51777;53.570;9.984;2024-02-26T00:33:21;10.45;;;6.32;;
65189;SDS011;51777;53.570;9.984;2024-02-26T00:35:46;11.13;;;6.28;;
65189;SDS011;51777;53.570;9.984;2024-02-26T00:38:12;10.35;;;6.32;;
65189;SDS011;51777;53.570;9.984;2024-02-26T00:40:37;11.15;;;6.55;;
65189;SDS011;51777;53.570;9.984;2024-02-26T00:43:03;9.18;;;6.38;;
65189;SDS011;51777;53.570;9.984;2024-02-26T00:45:28;11.73;;;6.72;;
65189;SDS011;51777;53.570;9.984;2024-02-26T00:47:54;10.38;;;6.55;;
65189;SDS011;51777;53.570;9.984;2024-02-26T00:50:19;9.80;;;6.93;;
65189;SDS011;51777;53.570;9.984;2024-02-26T00:52:44;15.25;;;7.72;;
65189;SDS011;51777;53.570;9.984;2024-02-26T00:55:10;17.08;;;8.70;;
65189;SDS011;51777;53.570;9.984;2024-02-26T00:57:35;12.43;;;7.50;;
65189;SDS011;51777;53.570;9.984;2024-02-26T01:00:00;20.70;;;8.63;;
65189;SDS011;51777;53.570;9.984;2024-02-26T01:02:26;19.17;;;8.95;;
65189;SDS011;51777;53.570;9.984;2024-02-26T01:04:51;18.42;;;8.85;;
65189;SDS011;51777;53.570;9.984;2024-02-26T01:07:17;26.60;;;9.25;;
65189;SDS011;51777;53.570;9.984;2024-02-26T01:09:42;20.23;;;9.85;;
65189;SDS011;51777;53.570;9.984;2024-02-26T01:12:08;18.58;;;9.07;;
65189;SDS011;51777;53.570;9.984;2024-02-26T01:14:34;14.88;;;8.57;;
65189;SDS011;51777;53.570;9.984;2024-02-26T01:16:59;16.92;;;8.68;;
65189;SDS011;51777;53.570;9.984;2024-02-26T01:19:25;19.50;;;9.02;;
65189;SDS011;51777;53.570;9.984;2024-02-26T01:21:50;20.33;;;9.68;;
65189;SDS011;51777;53.570;9.984;2024-02-26T01:24:16;21.02;;;9.88;;
65189;SDS011;51777;53.570;9.984;2024-02-26T01:26:41;21.27;;;10.07;;
65189;SDS011;51777;53.570;9.984;2024-02-26T01:29:07;24.88;;;10.82;;
65189;SDS011;51777;53.570;9.984;2024-02-26T01:31:32;21.10;;;10.80;;
65189;SDS011;51777;53.570;9.984;2024-02-26T01:33:57;27.00;;;11.90;;
65189;SDS011;51777;53.570;9.984;2024-02-26T01:36:23;33.97;;;12.20;;
65189;SDS011;51777;53.570;9.984;2024-02-26T01:38:48;27.38;;;12.23;;
65189;SDS011;51777;53.570;9.984;2024-02-26T01:41:14;38.03;;;12.93;;
65189;SDS011;51777;53.570;9.984;2024-02-26T01:43:39;28.55;;;13.07;;
65189;SDS011;51777;53.570;9.984;2024-02-26T01:46:05;37.33;;;13.43;;
65189;SDS011;51777;53.570;9.984;2024-02-26T01:48:35;33.70;;;12.20;;
65189;SDS011;51777;53.570;9.984;2024-02-26T01:51:01;23.67;;;11.13;;
65189;SDS011;51777;53.570;9.984;2024-02-26T01:53:27;24.92;;;11.60;;
65189;SDS011;51777;53.570;9.984;2024-02-26T01:55:52;25.08;;;11.07;;
65189;SDS011;51777;53.570;9.984;2024-02-26T01:58:18;25.15;;;10.43;;
65189;SDS011;51777;53.570;9.984;2024-02-26T02:00:43;29.48;;;10.35;;
65189;SDS011;51777;53.570;9.984;2024-02-26T02:03:09;23.63;;;10.23;;
65189;SDS011;51777;53.570;9.984;2024-02-26T02:05:34;23.05;;;10.52;;
65189;SDS011;51777;53.570;9.984;2024-02-26T02:08:06;19.58;;;10.07;;
65189;SDS011;51777;53.570;9.984;2024-02-26T02:10:32;22.65;;;10.35;;
65189;SDS011;51777;53.570;9.984;2024-02-26T02:12:58;21.70;;;10.93;;
65189;SDS011;51777;53.570;9.984;2024-02-26T02:15:23;19.92;;;10.48;;
65189;SDS011;51777;53.570;9.984;2024-02-26T02:17:49;20.63;;;10.02;;
65189;SDS011;51777;53.570;9.984;2024-02-26T02:20:17;20.02;;;10.68;;
65189;SDS011;51777;53.570;9.984;2024-02-26T02:22:46;19.65;;;10.50;;
65189;SDS011;51777;53.570;9.984;2024-02-26T02:25:11;16.23;;;10.68;;
65189;SDS011;51777;53.570;9.984;2024-02-26T02:27:37;18.27;;;10.93;;
65189;SDS011;51777;53.570;9.984;2024-02-26T02:30:03;22.17;;;11.48;;
65189;SDS011;51777;53.570;9.984;2024-02-26T02:32:30;24.02;;;12.35;;
65189;SDS011;51777;53.570;9.984;2024-02-26T02:34:55;20.90;;;12.50;;
65189;SDS011;51777;53.570;9.984;2024-02-26T02:37:21;25.73;;;14.40;;
65189;SDS011;51777;53.570;9.984;2024-02-26T02:39:47;25.17;;;13.68;;
65189;SDS011;51777;53.570;9.984;2024-02-26T02:42:12;23.80;;;14.77;;
65189;SDS011;51777;53.570;9.984;2024-02-26T02:44:38;25.23;;;14.85;;
65189;SDS011;51777;53.570;9.984;2024-02-26T02:47:03;27.13;;;14.77;;
65189;SDS011;51777;53.570;9.984;2024-02-26T02:49:29;25.23;;;15.10;;
65189;SDS011;51777;53.570;9.984;2024-02-26T02:51:54;22.33;;;14.30;;
65189;SDS011;51777;53.570;9.984;2024-02-26T02:54:20;22.33;;;13.50;;
65189;SDS011;51777;53.570;9.984;2024-02-26T02:56:45;22.05;;;13.95;;
65189;SDS011;51777;53.570;9.984;2024-02-26T02:59:10;19.88;;;13.60;;
65189;SDS011;51777;53.570;9.984;2024-02-26T03:01:37;20.75;;;13.73;;
65189;SDS011;51777;53.570;9.984;2024-02-26T03:04:02;24.52;;;14.70;;
65189;SDS011;51777;53.570;9.984;2024-02-26T03:06:28;21.83;;;14.10;;
65189;SDS011;51777;53.570;9.984;2024-02-26T03:08:53;23.85;;;15.10;;
65189;SDS011;51777;53.570;9.984;2024-02-26T03:11:19;23.95;;;15.15;;
65189;SDS011;51777;53.570;9.984;2024-02-26T03:13:45;24.23;;;15.13;;
65189;SDS011;51777;53.570;9.984;2024-02-26T03:16:11;25.13;;;14.93;;
65189;SDS011;51777;53.570;9.984;2024-02-26T03:18:38;21.48;;;14.10;;
65189;SDS011;51777;53.570;9.984;2024-02-26T03:21:05;21.50;;;14.10;;
65189;SDS011;51777;53.570;9.984;2024-02-26T03:23:30;25.42;;;15.05;;
65189;SDS011;51777;53.570;9.984;2024-02-26T03:25:57;22.98;;;15.05;;
65189;SDS011;51777;53.570;9.984;2024-02-26T03:28:23;23.20;;;14.30;;
65189;SDS011;51777;53.570;9.984;2024-02-26T03:30:48;20.65;;;13.90;;
65189;SDS011;51777;53.570;9.984;2024-02-26T03:33:14;19.92;;;13.50;;
65189;SDS011;51777;53.570;9.984;2024-02-26T03:35:39;20.17;;;13.88;;
65189;SDS011;51777;53.570;9.984;2024-02-26T03:38:05;23.00;;;14.40;;
65189;SDS011;51777;53.570;9.984;2024-02-26T03:40:30;24.27;;;14.32;;
65189;SDS011;51777;53.570;9.984;2024-02-26T03:42:55;22.60;;;13.98;;
65189;SDS011;51777;53.570;9.984;2024-02-26T03:45:22;20.88;;;14.20;;
65189;SDS011;51777;53.570;9.984;2024-02-26T03:47:49;22.65;;;14.30;;
65189;SDS011;51777;53.570;9.984;2024-02-26T03:50:14;23.17;;;14.13;;
65189;SDS011;51777;53.570;9.984;2024-02-26T03:52:39;21.52;;;14.07;;
65189;SDS011;51777;53.570;9.984;2024-02-26T03:55:05;26.30;;;14.82;;
65189;SDS011;51777;53.570;9.984;2024-02-26T03:57:30;25.83;;;15.57;;
65189;SDS011;51777;53.570;9.984;2024-02-26T03:59:56;25.17;;;15.65;;
65189;SDS011;51777;53.570;9.984;2024-02-26T04:02:21;23.83;;;14.88;;
65189;SDS011;51777;53.570;9.984;2024-02-26T04:04:48;22.85;;;15.75;;
65189;SDS011;51777;53.570;9.984;2024-02-26T04:07:14;24.80;;;15.27;;
65189;SDS011;51777;53.570;9.984;2024-02-26T04:09:39;23.52;;;15.07;;
65189;SDS011;51777;53.570;9.984;2024-02-26T04:12:05;23.02;;;15.52;;
65189;SDS011;51777;53.570;9.984;2024-02-26T04:14:31;23.35;;;15.23;;
65189;SDS011;51777;53.570;9.984;2024-02-26T04:16:56;26.38;;;16.10;;
65189;SDS011;51777;53.570;9.984;2024-02-26T04:19:22;22.48;;;15.18;;
65189;SDS011;51777;53.570;9.984;2024-02-26T04:21:47;24.35;;;15.48;;
65189;SDS011;51777;53.570;9.984;2024-02-26T04:24:12;25.10;;;14.73;;
65189;SDS011;51777;53.570;9.984;2024-02-26T04:26:38;23.65;;;15.05;;
65189;SDS011;51777;53.570;9.984;2024-02-26T04:29:04;23.08;;;15.20;;
65189;SDS011;51777;53.570;9.984;2024-02-26T04:31:29;21.73;;;14.93;;
65189;SDS011;51777;53.570;9.984;2024-02-26T04:33:56;24.83;;;15.88;;
65189;SDS011;51777;53.570;9.984;2024-02-26T04:36:21;24.80;;;15.30;;
65189;SDS011;51777;53.570;9.984;2024-02-26T04:38:47;23.98;;;15.35;;
65189;SDS011;51777;53.570;9.984;2024-02-26T04:41:15;23.30;;;14.70;;
65189;SDS011;51777;53.570;9.984;2024-02-26T04:43:43;23.13;;;15.25;;
65189;SDS011;51777;53.570;9.984;2024-02-26T04:46:09;24.35;;;15.30;;
65189;SDS011;51777;53.570;9.984;2024-02-26T04:48:35;22.75;;;15.27;;
65189;SDS011;51777;53.570;9.984;2024-02-26T04:51:03;24.75;;;14.48;;
65189;SDS011;51777;53.570;9.984;2024-02-26T04:53:29;24.45;;;15.57;;
65189;SDS011;51777;53.570;9.984;2024-02-26T04:55:55;23.38;;;15.30;;
65189;SDS011;51777;53.570;9.984;2024-02-26T04:58:20;24.15;;;14.80;;
65189;SDS011;51777;53.570;9.984;2024-02-26T05:00:45;22.73;;;14.88;;
65189;SDS011;51777;53.570;9.984;2024-02-26T05:03:16;23.48;;;15.15;;
65189;SDS011;51777;53.570;9.984;2024-02-26T05:05:45;28.02;;;15.35;;
65189;SDS011;51777;53.570;9.984;2024-02-26T05:08:10;23.70;;;15.23;;
65189;SDS011;51777;53.570;9.984;2024-02-26T05:10:39;21.45;;;14.35;;
65189;SDS011;51777;53.570;9.984;2024-02-26T05:13:05;23.30;;;14.45;;
65189;SDS011;51777;53.570;9.984;2024-02-26T05:15:32;23.73;;;14.77;;
65189;SDS011;51777;53.570;9.984;2024-02-26T05:17:57;23.42;;;14.73;;
65189;SDS011;51777;53.570;9.984;2024-02-26T05:20:22;22.73;;;14.73;;
65189;SDS011;51777;53.570;9.984;2024-02-26T05:22:48;22.00;;;14.70;;
65189;SDS011;51777;53.570;9.984;2024-02-26T05:25:15;23.20;;;14.15;;
65189;SDS011;51777;53.570;9.984;2024-02-26T05:27:41;19.45;;;13.55;;
65189;SDS011;51777;53.570;9.984;2024-02-26T05:30:07;23.80;;;14.90;;
65189;SDS011;51777;53.570;9.984;2024-02-26T05:32:32;20.95;;;14.23;;
65189;SDS011;51777;53.570;9.984;2024-02-26T05:34:58;21.52;;;14.38;;
65189;SDS011;51777;53.570;9.984;2024-02-26T05:37:23;21.98;;;14.38;;
65189;SDS011;51777;53.570;9.984;2024-02-26T05:39:48;23.95;;;14.65;;
65189;SDS011;51777;53.570;9.984;2024-02-26T05:42:17;22.55;;;14.00;;
65189;SDS011;51777;53.570;9.984;2024-02-26T05:44:45;21.27;;;14.10;;
65189;SDS011;51777;53.570;9.984;2024-02-26T05:47:11;24.85;;;14.50;;
65189;SDS011;51777;53.570;9.984;2024-02-26T05:49:37;20.88;;;13.65;;
65189;SDS011;51777;53.570;9.984;2024-02-26T05:52:02;24.48;;;15.00;;
65189;SDS011;51777;53.570;9.984;2024-02-26T05:54:27;22.02;;;13.55;;
65189;SDS011;51777;53.570;9.984;2024-02-26T05:56:53;19.55;;;12.90;;
65189;SDS011;51777;53.570;9.984;2024-02-26T05:59:18;18.73;;;13.30;;
65189;SDS011;51777;53.570;9.984;2024-02-26T06:01:44;21.42;;;14.25;;
65189;SDS011;51777;53.570;9.984;2024-02-26T06:04:09;21.23;;;13.77;;
65189;SDS011;51777;53.570;9.984;2024-02-26T06:06:34;23.33;;;15.07;;
65189;SDS011;51777;53.570;9.984;2024-02-26T06:09:00;21.00;;;13.63;;
65189;SDS011;51777;53.570;9.984;2024-02-26T06:11:25;21.92;;;13.80;;
65189;SDS011;51777;53.570;9.984;2024-02-26T06:13:50;20.00;;;13.50;;
65189;SDS011;51777;53.570;9.984;2024-02-26T06:16:16;21.92;;;13.57;;
65189;SDS011;51777;53.570;9.984;2024-02-26T06:18:41;19.70;;;13.60;;
65189;SDS011;51777;53.570;9.984;2024-02-26T06:21:10;17.23;;;12.68;;
65189;SDS011;51777;53.570;9.984;2024-02-26T06:23:36;20.35;;;13.07;;
65189;SDS011;51777;53.570;9.984;2024-02-26T06:26:02;19.05;;;12.82;;
65189;SDS011;51777;53.570;9.984;2024-02-26T06:28:28;17.88;;;13.02;;
65189;SDS011;51777;53.570;9.984;2024-02-26T06:30:58;18.17;;;12.13;;
65189;SDS011;51777;53.570;9.984;2024-02-26T06:33:24;19.45;;;12.80;;
65189;SDS011;51777;53.570;9.984;2024-02-26T06:38:30;19.80;;;13.25;;
65189;SDS011;51777;53.570;9.984;2024-02-26T06:40:55;17.20;;;12.00;;
65189;SDS011;51777;53.570;9.984;2024-02-26T06:43:20;16.40;;;12.02;;
65189;SDS011;51777;53.570;9.984;2024-02-26T06:45:49;17.05;;;12.35;;
65189;SDS011;51777;53.570;9.984;2024-02-26T06:48:15;19.92;;;12.65;;
65189;SDS011;51777;53.570;9.984;2024-02-26T06:50:40;17.33;;;12.20;;
65189;SDS011;51777;53.570;9.984;2024-02-26T06:53:06;19.40;;;13.10;;
65189;SDS011;51777;53.570;9.984;2024-02-26T06:55:32;17.52;;;12.02;;
65189;SDS011;51777;53.570;9.984;2024-02-26T06:57:57;19.45;;;12.63;;
65189;SDS011;51777;53.570;9.984;2024-02-26T07:00:23;17.17;;;11.93;;
65189;SDS011;51777;53.570;9.984;2024-02-26T07:05:19;17.20;;;12.35;;
65189;SDS011;51777;53.570;9.984;2024-02-26T07:07:44;18.30;;;12.55;;
65189;SDS011;51777;53.570;9.984;2024-02-26T07:10:10;18.50;;;12.13;;
65189;SDS011;51777;53.570;9.984;2024-02-26T07:12:38;18.85;;;12.57;;
65189;SDS011;51777;53.570;9.984;2024-02-26T07:15:04;20.50;;;12.85;;
65189;SDS011;51777;53.570;9.984;2024-02-26T07:17:32;22.52;;;12.98;;
65189;SDS011;51777;53.570;9.984;2024-02-26T07:19:59;19.67;;;12.57;;
65189;SDS011;51777;53.570;9.984;2024-02-26T07:22:24;20.48;;;12.85;;
65189;SDS011;51777;53.570;9.984;2024-02-26T07:24:50;20.02;;;13.05;;
65189;SDS011;51777;53.570;9.984;2024-02-26T07:27:23;19.73;;;12.60;;
65189;SDS011;51777;53.570;9.984;2024-02-26T07:30:25;19.77;;;11.82;;
65189;SDS011;51777;53.570;9.984;2024-02-26T07:33:17;18.40;;;12.18;;
65189;SDS011;51777;53.570;9.984;2024-02-26T07:38:15;17.17;;;10.80;;
65189;SDS011;51777;53.570;9.984;2024-02-26T07:40:40;17.95;;;11.65;;
65189;SDS011;51777;53.570;9.984;2024-02-26T07:43:06;19.05;;;11.75;;
65189;SDS011;51777;53.570;9.984;2024-02-26T07:45:31;19.52;;;11.73;;
65189;SDS011;51777;53.570;9.984;2024-02-26T07:47:56;15.68;;;11.25;;
65189;SDS011;51777;53.570;9.984;2024-02-26T07:50:22;16.75;;;11.20;;
65189;SDS011;51777;53.570;9.984;2024-02-26T07:52:47;17.70;;;11.65;;
65189;SDS011;51777;53.570;9.984;2024-02-26T07:55:14;17.75;;;11.43;;
65189;SDS011;51777;53.570;9.984;2024-02-26T07:57:41;16.48;;;10.80;;
65189;SDS011;51777;53.570;9.984;2024-02-26T08:00:08;16.20;;;11.18;;
65189;SDS011;51777;53.570;9.984;2024-02-26T08:02:34;21.98;;;12.10;;
65189;SDS011;51777;53.570;9.984;2024-02-26T08:05:01;16.90;;;11.15;;
65189;SDS011;51777;53.570;9.984;2024-02-26T08:07:26;16.65;;;11.20;;
65189;SDS011;51777;53.570;9.984;2024-02-26T08:09:52;16.55;;;10.48;;
65189;SDS011;51777;53.570;9.984;2024-02-26T08:12:19;17.67;;;11.30;;
65189;SDS011;51777;53.570;9.984;2024-02-26T08:14:44;16.30;;;10.73;;
65189;SDS011;51777;53.570;9.984;2024-02-26T08:17:10;17.23;;;11.23;;
65189;SDS011;51777;53.570;9.984;2024-02-26T08:19:35;17.52;;;11.50;;
65189;SDS011;51777;53.570;9.984;2024-02-26T08:22:01;17.80;;;11.13;;
65189;SDS011;51777;53.570;9.984;2024-02-26T08:24:40;16.60;;;11.50;;
65189;SDS011;51777;53.570;9.984;2024-02-26T08:27:06;17.13;;;11.50;;
65189;SDS011;51777;53.570;9.984;2024-02-26T08:29:32;16.48;;;11.57;;
65189;SDS011;51777;53.570;9.984;2024-02-26T08:31:57;16.83;;;11.75;;
65189;SDS011;51777;53.570;9.984;2024-02-26T08:34:23;17.35;;;11.38;;
65189;SDS011;51777;53.570;9.984;2024-02-26T08:36:48;21.10;;;12.32;;
65189;SDS011;51777;53.570;9.984;2024-02-26T08:39:15;20.13;;;12.38;;
65189;SDS011;51777;53.570;9.984;2024-02-26T08:41:42;16.77;;;11.80;;
65189;SDS011;51777;53.570;9.984;2024-02-26T08:44:09;18.45;;;11.70;;
65189;SDS011;51777;53.570;9.984;2024-02-26T08:46:37;16.88;;;11.45;;
65189;SDS011;51777;53.570;9.984;2024-02-26T08:49:03;17.42;;;11.15;;
65189;SDS011;51777;53.570;9.984;2024-02-26T08:51:28;16.05;;;11.23;;
65189;SDS011;51777;53.570;9.984;2024-02-26T08:53:54;19.80;;;11.68;;
65189;SDS011;51777;53.570;9.984;2024-02-26T08:58:49;16.27;;;11.48;;
65189;SDS011;51777;53.570;9.984;2024-02-26T09:01:19;16.67;;;11.30;;
65189;SDS011;51777;53.570;9.984;2024-02-26T09:03:44;16.05;;;10.95;;
65189;SDS011;51777;53.570;9.984;2024-02-26T09:06:10;17.70;;;10.77;;
65189;SDS011;51777;53.570;9.984;2024-02-26T09:08:39;16.80;;;11.10;;
65189;SDS011;51777;53.570;9.984;2024-02-26T09:11:05;17.15;;;10.80;;
65189;SDS011;51777;53.570;9.984;2024-02-26T09:13:30;16.17;;;10.65;;
65189;SDS011;51777;53.570;9.984;2024-02-26T09:15:56;15.27;;;9.95;;
65189;SDS011;51777;53.570;9.984;2024-02-26T09:18:21;16.95;;;10.40;;
65189;SDS011;51777;53.570;9.984;2024-02-26T09:20:47;14.65;;;9.98;;
65189;SDS011;51777;53.570;9.984;2024-02-26T09:23:13;14.48;;;10.15;;
65189;SDS011;51777;53.570;9.984;2024-02-26T09:25:38;18.80;;;10.18;;
65189;SDS011;51777;53.570;9.984;2024-02-26T09:28:16;19.00;;;10.82;;
65189;SDS011;51777;53.570;9.984;2024-02-26T09:30:42;14.40;;;10.02;;
65189;SDS011;51777;53.570;9.984;2024-02-26T09:33:14;14.85;;;9.85;;
65189;SDS011;51777;53.570;9.984;2024-02-26T09:35:40;13.23;;;9.52;;
65189;SDS011;51777;53.570;9.984;2024-02-26T09:38:17;13.82;;;9.85;;
65189;SDS011;51777;53.570;9.984;2024-02-26T09:40:43;14.65;;;9.95;;
65189;SDS011;51777;53.570;9.984;2024-02-26T09:43:08;13.18;;;9.75;;
65189;SDS011;51777;53.570;9.984;2024-02-26T09:45:40;13.52;;;9.10;;
65189;SDS011;51777;53.570;9.984;2024-02-26T09:48:15;14.55;;;9.40;;
65189;SDS011;51777;53.570;9.984;2024-02-26T09:50:42;12.45;;;9.05;;
65189;SDS011;51777;53.570;9.984;2024-02-26T09:53:08;13.65;;;9.48;;
65189;SDS011;51777;53.570;9.984;2024-02-26T09:55:35;15.20;;;9.43;;
65189;SDS011;51777;53.570;9.984;2024-02-26T09:58:01;13.50;;;9.55;;
65189;SDS011;51777;53.570;9.984;2024-02-26T10:00:32;13.95;;;9.23;;
65189;SDS011;51777;53.570;9.984;2024-02-26T10:03:02;15.57;;;10.00;;
65189;SDS011;51777;53.570;9.984;2024-02-26T10:05:35;17.02;;;10.18;;
65189;SDS011;51777;53.570;9.984;2024-02-26T10:08:02;16.90;;;9.77;;
65189;SDS011;51777;53.570;9.984;2024-02-26T10:10:29;18.15;;;10.20;;
65189;SDS011;51777;53.570;9.984;2024-02-26T10:12:56;14.98;;;10.05;;
65189;SDS011;51777;53.570;9.984;2024-02-26T10:15:23;15.23;;;10.32;;
65189;SDS011;51777;53.570;9.984;2024-02-26T10:17:49;18.88;;;10.35;;
65189;SDS011;51777;53.570;9.984;2024-02-26T10:20:15;18.90;;;11.25;;
65189;SDS011;51777;53.570;9.984;2024-02-26T10:22:48;14.82;;;10.25;;
65189;SDS011;51777;53.570;9.984;2024-02-26T10:25:15;16.40;;;11.15;;
65189;SDS011;51777;53.570;9.984;2024-02-26T10:27:41;18.73;;;11.25;;
65189;SDS011;51777;53.570;9.984;2024-02-26T10:30:21;17.10;;;10.88;;
65189;SDS011;51777;53.570;9.984;2024-02-26T10:32:48;16.35;;;10.80;;
65189;SDS011;51777;53.570;9.984;2024-02-26T10:35:15;14.07;;;10.07;;
65189;SDS011;51777;53.570;9.984;2024-02-26T10:37:42;16.70;;;10.13;;
65189;SDS011;51777;53.570;9.984;2024-02-26T10:40:09;16.75;;;11.10;;
65189;SDS011;51777;53.570;9.984;2024-02-26T10:42:36;15.25;;;10.70;;
65189;SDS011;51777;53.570;9.984;2024-02-26T10:45:03;15.93;;;10.60;;
65189;SDS011;51777;53.570;9.984;2024-02-26T10:47:30;15.35;;;10.60;;
65189;SDS011;51777;53.570;9.984;2024-02-26T10:49:58;18.63;;;10.85;;
65189;SDS011;51777;53.570;9.984;2024-02-26T10:52:23;17.15;;;10.63;;
65189;SDS011;51777;53.570;9.984;2024-02-26T10:54:53;16.20;;;10.90;;
65189;SDS011;51777;53.570;9.984;2024-02-26T10:57:21;23.33;;;11.32;;
65189;SDS011;51777;53.570;9.984;2024-02-26T10:59:49;18.00;;;11.10;;
65189;SDS011;51777;53.570;9.984;2024-02-26T11:02:16;22.17;;;11.23;;
65189;SDS011;51777;53.570;9.984;2024-02-26T11:04:45;17.92;;;10.60;;
65189;SDS011;51777;53.570;9.984;2024-02-26T11:07:11;15.75;;;10.70;;
65189;SDS011;51777;53.570;9.984;2024-02-26T11:09:37;17.15;;;10.60;;
65189;SDS011;51777;53.570;9.984;2024-02-26T11:12:10;18.52;;;11.68;;
65189;SDS011;51777;53.570;9.984;2024-02-26T11:14:39;16.92;;;11.55;;
65189;SDS011;51777;53.570;9.984;2024-02-26T11:17:08;18.25;;;11.23;;
65189;SDS011;51777;53.570;9.984;2024-02-26T11:19:35;16.60;;;10.85;;
65189;SDS011;51777;53.570;9.984;2024-02-26T11:22:01;15.18;;;9.93;;
65189;SDS011;51777;53.570;9.984;2024-02-26T11:24:27;18.10;;;10.95;;
65189;SDS011;51777;53.570;9.984;2024-02-26T11:26:54;16.77;;;11.27;;
65189;SDS011;51777;53.570;9.984;2024-02-26T11:29:27;17.88;;;10.57;;
65189;SDS011;51777;53.570;9.984;2024-02-26T11:31:59;17.02;;;10.60;;
65189;SDS011;51777;53.570;9.984;2024-02-26T11:34:25;15.77;;;10.35;;
65189;SDS011;51777;53.570;9.984;2024-02-26T11:36:52;14.32;;;10.35;;
65189;SDS011;51777;53.570;9.984;2024-02-26T11:39:19;20.38;;;10.27;;
65189;SDS011;51777;53.570;9.984;2024-02-26T11:41:44;15.05;;;10.15;;
65189;SDS011;51777;53.570;9.984;2024-02-26T11:44:10;15.07;;;9.60;;
65189;SDS011;51777;53.570;9.984;2024-02-26T11:46:40;14.13;;;9.90;;
65189;SDS011;51777;53.570;9.984;2024-02-26T11:51:56;12.82;;;9.13;;
65189;SDS011;51777;53.570;9.984;2024-02-26T11:57:25;15.48;;;9.20;;
65189;SDS011;51777;53.570;9.984;2024-02-26T11:59:56;12.30;;;9.18;;
65189;SDS011;51777;53.570;9.984;2024-02-26T12:02:52;16.25;;;9.63;;
65189;SDS011;51777;53.570;9.984;2024-02-26T12:05:26;16.88;;;9.20;;
65189;SDS011;51777;53.570;9.984;2024-02-26T12:08:07;15.95;;;9.57;;
65189;SDS011;51777;53.570;9.984;2024-02-26T12:10:33;12.15;;;8.77;;
65189;SDS011;51777;53.570;9.984;2024-02-26T12:15:38;12.57;;;8.38;;
65189;SDS011;51777;53.570;9.984;2024-02-26T12:18:06;14.13;;;10.18;;
65189;SDS011;51777;53.570;9.984;2024-02-26T12:20:35;13.63;;;9.32;;
65189;SDS011;51777;53.570;9.984;2024-02-26T12:23:03;13.50;;;8.63;;
65189;SDS011;51777;53.570;9.984;2024-02-26T12:25:32;12.68;;;8.43;;
65189;SDS011;51777;53.570;9.984;2024-02-26T12:27:58;12.18;;;8.73;;
65189;SDS011;51777;53.570;9.984;2024-02-26T12:30:25;14.20;;;8.77;;
65189;SDS011;51777;53.570;9.984;2024-02-26T12:32:54;12.88;;;8.93;;
65189;SDS011;51777;53.570;9.984;2024-02-26T12:35:25;12.85;;;8.60;;
65189;SDS011;51777;53.570;9.984;2024-02-26T12:37:52;12.63;;;9.25;;
65189;SDS011;51777;53.570;9.984;2024-02-26T12:40:19;15.43;;;8.88;;
65189;SDS011;51777;53.570;9.984;2024-02-26T12:42:46;14.25;;;9.48;;
65189;SDS011;51777;53.570;9.984;2024-02-26T12:45:12;13.15;;;8.82;;
65189;SDS011;51777;53.570;9.984;2024-02-26T12:47:40;13.07;;;8.77;;
65189;SDS011;51777;53.570;9.984;2024-02-26T12:50:08;12.25;;;8.93;;
65189;SDS011;51777;53.570;9.984;2024-02-26T12:52:47;13.73;;;9.32;;
65189;SDS011;51777;53.570;9.984;2024-02-26T12:55:19;12.85;;;9.48;;
65189;SDS011;51777;53.570;9.984;2024-02-26T12:57:48;14.93;;;8.88;;
65189;SDS011;51777;53.570;9.984;2024-02-26T13:00:18;13.05;;;9.38;;
65189;SDS011;51777;53.570;9.984;2024-02-26T13:02:48;11.68;;;8.57;;
65189;SDS011;51777;53.570;9.984;2024-02-26T13:05:15;11.93;;;8.75;;
65189;SDS011;51777;53.570;9.984;2024-02-26T13:07:42;13.93;;;9.02;;
65189;SDS011;51777;53.570;9.984;2024-02-26T13:10:09;12.75;;;8.77;;
65189;SDS011;51777;53.570;9.984;2024-02-26T13:12:37;13.63;;;9.07;;
65189;SDS011;51777;53.570;9.984;2024-02-26T13:15:06;13.57;;;8.90;;
65189;SDS011;51777;53.570;9.984;2024-02-26T13:17:33;12.45;;;8.98;;
65189;SDS011;51777;53.570;9.984;2024-02-26T13:19:59;13.55;;;8.63;;
65189;SDS011;51777;53.570;9.984;2024-02-26T13:22:26;13.07;;;8.40;;
65189;SDS011;51777;53.570;9.984;2024-02-26T13:24:55;11.38;;;8.18;;
65189;SDS011;51777;53.570;9.984;2024-02-26T13:27:24;12.25;;;8.43;;
65189;SDS011;51777;53.570;9.984;2024-02-26T13:30:04;14.05;;;8.70;;
65189;SDS011;51777;53.570;9.984;2024-02-26T13:32:36;15.77;;;9.23;;
65189;SDS011;51777;53.570;9.984;2024-02-26T13:37:35;11.35;;;8.10;;
65189;SDS011;51777;53.570;9.984;2024-02-26T13:40:05;11.43;;;8.32;;
65189;SDS011;51777;53.570;9.984;2024-02-26T13:42:33;12.48;;;8.32;;
65189;SDS011;51777;53.570;9.984;2024-02-26T13:44:59;12.65;;;8.55;;
65189;SDS011;51777;53.570;9.984;2024-02-26T13:47:24;12.20;;;8.25;;
65189;SDS011;51777;53.570;9.984;2024-02-26T13:49:50;13.30;;;8.45;;
65189;SDS011;51777;53.570;9.984;2024-02-26T13:52:15;12.57;;;8.98;;
65189;SDS011;51777;53.570;9.984;2024-02-26T13:54:41;13.32;;;8.80;;
65189;SDS011;51777;53.570;9.984;2024-02-26T13:57:06;12.25;;;8.70;;
65189;SDS011;51777;53.570;9.984;2024-02-26T13:59:33;15.32;;;9.15;;
65189;SDS011;51777;53.570;9.984;2024-02-26T14:01:59;15.20;;;9.30;;
65189;SDS011;51777;53.570;9.984;2024-02-26T14:04:25;15.27;;;9.50;;
65189;SDS011;51777;53.570;9.984;2024-02-26T14:06:50;15.18;;;10.05;;
65189;SDS011;51777;53.570;9.984;2024-02-26T14:09:16;13.48;;;9.57;;
65189;SDS011;51777;53.570;9.984;2024-02-26T14:11:44;14.25;;;9.40;;
65189;SDS011;51777;53.570;9.984;2024-02-26T14:14:10;14.73;;;9.73;;
65189;SDS011;51777;53.570;9.984;2024-02-26T14:16:36;15.57;;;9.25;;
65189;SDS011;51777;53.570;9.984;2024-02-26T14:19:01;14.63;;;9.40;;
65189;SDS011;51777;53.570;9.984;2024-02-26T14:21:28;14.70;;;10.00;;
65189;SDS011;51777;53.570;9.984;2024-02-26T14:23:54;15.82;;;10.40;;
65189;SDS011;51777;53.570;9.984;2024-02-26T14:26:23;13.70;;;10.00;;
65189;SDS011;51777;53.570;9.984;2024-02-26T14:28:49;14.57;;;10.52;;
65189;SDS011;51777;53.570;9.984;2024-02-26T14:31:18;14.85;;;9.82;;
65189;SDS011;51777;53.570;9.984;2024-02-26T14:33:44;15.13;;;10.00;;
65189;SDS011;51777;53.570;9.984;2024-02-26T14:36:10;15.48;;;10.02;;
65189;SDS011;51777;53.570;9.984;2024-02-26T14:38:36;12.75;;;9.38;;
65189;SDS011;51777;53.570;9.984;2024-02-26T14:41:02;13.52;;;9.48;;
65189;SDS011;51777;53.570;9.984;2024-02-26T14:43:27;14.85;;;10.10;;
65189;SDS011;51777;53.570;9.984;2024-02-26T14:45:53;18.48;;;10.30;;
65189;SDS011;51777;53.570;9.984;2024-02-26T14:48:19;17.48;;;10.00;;